createdAt,value
2023-01-02T00:01:40.574Z,78.79
2023-01-02T00:04:08.701Z,78.62
2023-01-02T00:06:38.577Z,78.28
2023-01-02T00:09:08.065Z,79.02
2023-01-02T00:11:35.934Z,79.30
2023-01-02T00:14:03.700Z,79.64
2023-01-02T00:16:31.465Z,79.46
2023-01-02T00:18:59.103Z,79.29
2023-01-02T00:21:26.747Z,79.26
2023-01-02T00:23:56.622Z,79.21
2023-01-02T00:26:24.268Z,79.20
2023-01-02T00:28:51.754Z,79.19
2023-01-02T00:31:19.505Z,79.32
2023-01-02T00:33:47.234Z,79.17
2023-01-02T00:36:14.959Z,78.98
2023-01-02T00:38:44.138Z,78.92
2023-01-02T00:41:11.755Z,78.92
2023-01-02T00:43:39.556Z,79.04
2023-01-02T00:46:11.462Z,79.06
2023-01-02T00:48:36.611Z,78.95
2023-01-02T00:51:04.304Z,78.77
2023-01-02T00:53:32.171Z,78.81
2023-01-02T00:55:59.643Z,78.86
2023-01-02T00:58:27.175Z,79.06
2023-01-02T01:00:54.716Z,79.04
2023-01-02T01:03:22.303Z,79.02
2023-01-02T01:05:49.886Z,78.85
2023-01-02T01:08:17.517Z,78.79
2023-01-02T01:10:45.294Z,78.74
2023-01-02T01:13:12.923Z,78.60
2023-01-02T01:15:40.459Z,78.75
2023-01-02T01:18:08.093Z,79.11
2023-01-02T01:20:39.147Z,79.52
2023-01-02T01:23:06.664Z,79.69
2023-01-02T01:25:36.825Z,79.62
2023-01-02T01:28:04.681Z,79.64
2023-01-02T01:30:32.344Z,79.30
2023-01-02T01:32:59.687Z,79.33
2023-01-02T01:35:27.270Z,79.55
2023-01-02T01:37:54.734Z,79.25
2023-01-02T01:40:22.293Z,79.16
2023-01-02T01:42:50.532Z,78.83
2023-01-02T01:45:18.350Z,78.46
2023-01-02T01:47:55.341Z,78.23
2023-01-02T01:50:32.023Z,78.13
2023-01-02T01:53:04.625Z,78.07
2023-01-02T01:55:38.997Z,77.77
2023-01-02T01:58:17.672Z,77.70
2023-01-02T02:00:46.522Z,77.87
2023-01-02T02:03:22.039Z,78.24
2023-01-02T02:05:50.368Z,78.43
2023-01-02T02:08:32.539Z,78.41
2023-01-02T02:11:00.921Z,78.30
2023-01-02T02:13:31.967Z,78.30
2023-01-02T02:16:08.165Z,78.47
2023-01-02T02:18:56.680Z,78.65
2023-01-02T02:22:09.500Z,78.81
2023-01-02T02:25:22.331Z,79.10
2023-01-02T02:28:10.960Z,79.16
2023-01-02T02:31:01.934Z,79.10
2023-01-02T02:33:50.310Z,78.97
2023-01-02T02:36:23.289Z,78.98
2023-01-02T02:39:05.878Z,78.92
2023-01-02T02:41:39.766Z,78.63
2023-01-02T02:44:29.637Z,78.27
2023-01-02T02:47:18.688Z,78.11
2023-01-02T02:50:24.607Z,77.97
2023-01-02T02:53:13.547Z,77.87
2023-01-02T02:55:51.246Z,77.78
2023-01-02T02:58:27.355Z,78.18
2023-01-02T03:01:13.296Z,77.78
2023-01-02T03:03:41.833Z,77.29
2023-01-02T03:06:20.544Z,77.23
2023-01-02T03:09:24.266Z,76.99
2023-01-02T03:12:43.480Z,76.78
2023-01-02T03:18:31.505Z,77.08
2023-01-02T03:21:31.585Z,77.05
2023-01-02T03:24:06.435Z,77.00
2023-01-02T03:26:36.770Z,76.94
2023-01-02T03:29:10.093Z,77.01
2023-01-02T03:31:40.430Z,77.13
2023-01-02T03:34:15.468Z,77.58
2023-01-02T03:36:46.412Z,77.88
2023-01-02T03:39:20.924Z,78.19
2023-01-02T03:41:59.192Z,78.35
2023-01-02T03:44:31.172Z,78.35
2023-01-02T03:47:07.028Z,78.31
2023-01-02T03:49:44.612Z,78.23
2023-01-02T03:52:24.115Z,78.20
2023-01-02T03:54:52.426Z,78.05
2023-01-02T03:57:38.567Z,77.80
2023-01-02T04:00:17.256Z,77.84
2023-01-02T04:03:12.549Z,78.05
2023-01-02T04:05:58.196Z,78.42
2023-01-02T04:08:45.808Z,78.62
2023-01-02T04:11:17.720Z,79.03
2023-01-02T04:13:51.023Z,79.39
2023-01-02T04:16:23.640Z,79.69
2023-01-02T04:18:56.716Z,80.01
2023-01-02T04:21:28.584Z,80.36
2023-01-02T04:24:14.172Z,80.52
2023-01-02T04:27:04.502Z,80.70
2023-01-02T04:29:32.349Z,80.66
2023-01-02T04:32:05.223Z,80.55
2023-01-02T04:34:36.194Z,80.73
2023-01-02T04:37:03.724Z,80.87
2023-01-02T04:39:33.446Z,80.74
2023-01-02T04:42:01.110Z,80.94
2023-01-02T04:44:28.694Z,80.83
2023-01-02T04:46:56.179Z,80.62
2023-01-02T04:49:25.327Z,80.67
2023-01-02T04:51:53.152Z,80.60
2023-01-02T04:54:21.075Z,80.39
2023-01-02T04:56:48.643Z,80.23
2023-01-02T04:59:16.278Z,80.11
2023-01-02T05:01:44.169Z,79.77
2023-01-02T05:04:11.791Z,79.76
2023-01-02T05:06:39.224Z,79.37
2023-01-02T05:09:06.747Z,79.01
2023-01-02T05:11:35.014Z,78.86
2023-01-02T05:14:07.342Z,78.95
2023-01-02T05:16:32.445Z,78.93
2023-01-02T05:19:00.255Z,79.21
2023-01-02T05:21:46.743Z,79.32
2023-01-02T05:24:14.483Z,79.23
2023-01-02T05:26:42.116Z,79.01
2023-01-02T05:29:09.851Z,78.92
2023-01-02T05:31:37.786Z,78.60
2023-01-02T05:34:05.657Z,78.64
2023-01-02T05:36:33.190Z,78.52
2023-01-02T05:39:01.192Z,78.15
2023-01-02T05:41:28.438Z,78.05
2023-01-02T05:43:56.211Z,77.77
2023-01-02T05:46:24.098Z,77.89
2023-01-02T05:48:51.706Z,77.99
2023-01-02T05:51:20.079Z,77.83
2023-01-02T05:53:47.629Z,77.63
2023-01-02T05:56:17.568Z,77.48
2023-01-02T05:58:48.419Z,76.97
2023-01-02T06:01:20.300Z,77.36
2023-01-02T06:03:51.078Z,77.37
2023-01-02T06:06:22.730Z,76.92
2023-01-02T06:08:50.401Z,77.10
2023-01-02T06:11:18.844Z,77.01
2023-01-02T06:13:46.811Z,76.92
2023-01-02T06:16:14.537Z,76.83
2023-01-02T06:18:42.382Z,76.38
2023-01-02T06:21:16.319Z,76.17
2023-01-02T06:23:44.546Z,76.00
2023-01-02T06:26:15.787Z,75.87
2023-01-02T06:28:44.811Z,75.83
2023-01-02T06:31:15.392Z,75.74
2023-01-02T06:33:43.399Z,75.76
2023-01-02T06:36:17.764Z,75.85
2023-01-02T06:38:46.245Z,75.86
2023-01-02T06:41:14.454Z,76.06
2023-01-02T06:43:48.175Z,76.20
2023-01-02T06:46:18.875Z,76.31
2023-01-02T06:48:46.856Z,76.54
2023-01-02T06:51:20.715Z,76.70
2023-01-02T06:53:48.793Z,76.61
2023-01-02T06:56:19.023Z,76.63
2023-01-02T06:58:46.702Z,76.77
2023-01-02T07:01:18.164Z,76.96
2023-01-02T07:03:45.961Z,77.21
2023-01-02T07:06:17.601Z,77.65
2023-01-02T07:08:45.774Z,77.74
2023-01-02T07:11:17.645Z,77.97
2023-01-02T07:13:47.455Z,78.13
2023-01-02T07:16:17.893Z,78.26
2023-01-02T07:18:46.743Z,78.40
2023-01-02T07:21:16.249Z,78.69
2023-01-02T07:23:44.184Z,78.75
2023-01-02T07:26:12.880Z,78.80
2023-01-02T07:28:40.940Z,78.96
2023-01-02T07:31:12.821Z,79.13
2023-01-02T07:33:42.010Z,79.23
2023-01-02T07:36:16.627Z,79.41
2023-01-02T07:38:44.607Z,79.58
2023-01-02T07:41:17.960Z,79.88
2023-01-02T07:43:47.013Z,80.00
2023-01-02T07:46:17.637Z,79.93
2023-01-02T07:48:45.957Z,80.00
2023-01-02T07:51:14.556Z,79.96
2023-01-02T07:53:42.133Z,79.93
2023-01-02T07:56:10.223Z,79.98
2023-01-02T07:58:37.791Z,80.04
2023-01-02T08:01:12.457Z,80.11
2023-01-02T08:03:41.259Z,80.27
2023-01-02T08:06:13.238Z,80.21
2023-01-02T08:08:41.277Z,79.99
2023-01-02T08:11:16.047Z,79.90
2023-01-02T08:13:44.229Z,79.91
2023-01-02T08:16:15.615Z,79.85
2023-01-02T08:18:43.358Z,79.89
2023-01-02T08:21:11.256Z,79.99
2023-01-02T08:23:39.477Z,79.98
2023-01-02T08:26:10.165Z,80.02
2023-01-02T08:28:39.745Z,80.07
2023-01-02T08:31:17.271Z,80.03
2023-01-02T08:33:45.787Z,80.09
2023-01-02T08:36:14.435Z,80.11
2023-01-02T08:38:42.921Z,80.26
2023-01-02T08:41:10.549Z,80.19
2023-01-02T08:43:38.628Z,80.17
2023-01-02T08:46:09.114Z,80.12
2023-01-02T08:48:37.019Z,80.24
2023-01-02T08:51:05.599Z,80.26
2023-01-02T08:53:33.564Z,80.25
2023-01-02T08:56:23.201Z,80.19
2023-01-02T08:59:01.479Z,80.31
2023-01-02T09:01:33.655Z,79.94
2023-01-02T09:04:09.476Z,79.97
2023-01-02T09:06:35.417Z,79.62
2023-01-02T09:09:10.795Z,79.42
2023-01-02T09:11:37.895Z,78.80
2023-01-02T09:14:06.407Z,78.81
2023-01-02T09:16:34.401Z,78.46
2023-01-02T09:19:02.549Z,77.84
2023-01-02T09:21:30.623Z,77.23
2023-01-02T09:23:58.443Z,76.94
2023-01-02T09:26:26.565Z,76.77
2023-01-02T09:28:54.114Z,76.39
2023-01-02T09:31:22.067Z,76.16
2023-01-02T09:33:52.370Z,75.78
2023-01-02T09:36:21.265Z,75.77
2023-01-02T09:38:58.481Z,75.56
2023-01-02T09:41:39.251Z,75.46
2023-01-02T09:44:15.421Z,75.38
2023-01-02T09:46:59.575Z,75.48
2023-01-02T09:49:34.515Z,75.33
2023-01-02T09:52:02.283Z,75.45
2023-01-02T09:54:33.289Z,75.69
2023-01-02T09:57:16.221Z,75.91
2023-01-02T10:00:04.411Z,76.05
2023-01-02T10:02:59.414Z,76.12
2023-01-02T10:05:40.751Z,76.28
2023-01-02T10:08:33.874Z,76.29
2023-01-02T10:11:25.234Z,76.21
2023-01-02T10:14:20.551Z,76.04
2023-01-02T10:16:46.090Z,76.15
2023-01-02T10:19:19.101Z,76.36
2023-01-02T10:21:49.685Z,76.57
2023-01-02T10:24:29.559Z,76.67
2023-01-02T10:26:59.795Z,76.63
2023-01-02T10:29:30.668Z,76.76
2023-01-02T10:32:05.441Z,76.68
2023-01-02T10:34:53.174Z,76.29
2023-01-02T10:37:20.990Z,75.75
2023-01-02T10:39:50.474Z,75.65
2023-01-02T10:42:18.858Z,75.62
2023-01-02T10:44:47.006Z,75.43
2023-01-02T10:47:23.092Z,75.01
2023-01-02T10:49:52.895Z,74.73
2023-01-02T10:52:35.175Z,74.71
2023-01-02T10:55:02.806Z,74.59
2023-01-02T10:57:50.992Z,74.55
2023-01-02T11:00:28.263Z,74.46
2023-01-02T11:03:01.259Z,74.22
2023-01-02T11:05:31.227Z,73.95
2023-01-02T11:08:00.639Z,73.71
2023-01-02T11:10:36.832Z,73.67
2023-01-02T11:13:11.120Z,73.45
2023-01-02T11:15:58.383Z,72.83
2023-01-02T11:18:33.515Z,72.87
2023-01-02T11:21:05.580Z,72.70
2023-01-02T11:23:42.862Z,72.71
2023-01-02T11:26:20.681Z,72.60
2023-01-02T11:28:51.122Z,72.41
2023-01-02T11:31:21.434Z,72.25
2023-01-02T11:33:49.048Z,71.86
2023-01-02T11:36:19.471Z,71.49
2023-01-02T11:39:00.266Z,71.29
2023-01-02T11:41:57.617Z,71.12
2023-01-02T11:44:39.631Z,70.78
2023-01-02T11:47:10.473Z,70.54
2023-01-02T11:49:45.245Z,70.33
2023-01-02T11:52:18.453Z,70.12
2023-01-02T11:55:21.984Z,69.91
2023-01-02T11:57:55.173Z,69.89
2023-01-02T12:00:27.508Z,70.29
2023-01-02T12:03:00.721Z,69.58
2023-01-02T12:06:19.178Z,69.96
2023-01-02T12:08:54.845Z,69.96
2023-01-02T12:11:43.020Z,69.50
2023-01-02T12:14:18.480Z,68.88
2023-01-02T12:17:21.615Z,69.14
2023-01-02T12:20:17.899Z,69.25
2023-01-02T12:23:25.812Z,69.60
2023-01-02T12:26:09.632Z,69.64
2023-01-02T12:29:04.355Z,69.88
2023-01-02T12:31:49.482Z,69.77
2023-01-02T12:34:28.374Z,70.25
2023-01-02T12:37:24.712Z,70.01
2023-01-02T12:40:19.127Z,70.12
2023-01-02T12:43:15.274Z,70.15
2023-01-02T12:46:12.258Z,70.07
2023-01-02T12:48:59.963Z,69.94
2023-01-02T12:52:13.243Z,69.82
2023-01-02T12:55:16.161Z,69.80
2023-01-02T12:58:00.355Z,69.94
2023-01-02T13:00:48.848Z,69.79
2023-01-02T13:03:42.545Z,69.06
2023-01-02T13:06:57.574Z,69.13
2023-01-02T13:09:36.739Z,69.13
2023-01-02T13:12:17.246Z,68.99
2023-01-02T13:14:56.470Z,69.05
2023-01-02T13:17:46.152Z,68.79
2023-01-02T13:20:34.312Z,68.63
2023-01-02T13:23:32.813Z,67.99
2023-01-02T13:26:10.479Z,68.28
2023-01-02T13:28:44.237Z,68.29
2023-01-02T13:31:45.528Z,68.23
2023-01-02T13:33:46.652Z,68.25
2023-01-02T13:36:40.485Z,68.35
2023-01-02T13:39:27.632Z,68.55
2023-01-02T13:42:18.154Z,68.74
2023-01-02T13:44:53.085Z,68.61
2023-01-02T13:47:34.865Z,68.36
2023-01-02T13:50:33.929Z,68.48
2023-01-02T13:53:13.568Z,68.59
2023-01-02T13:56:01.630Z,68.43
2023-01-02T13:58:52.843Z,68.44
2023-01-02T14:01:29.077Z,67.87
2023-01-02T14:04:16.208Z,68.04
2023-01-02T14:06:53.658Z,67.97
2023-01-02T14:09:20.812Z,68.14
2023-01-02T14:11:57.496Z,68.13
2023-01-02T14:14:39.268Z,68.13
2023-01-02T14:17:42.331Z,68.19
2023-01-02T14:20:23.536Z,68.34
2023-01-02T14:23:05.362Z,68.52
2023-01-02T14:25:47.644Z,68.83
2023-01-02T14:28:28.917Z,69.02
2023-01-02T14:30:57.809Z,69.18
2023-01-02T14:33:34.876Z,69.39
2023-01-02T14:36:11.539Z,69.27
2023-01-02T14:38:53.316Z,69.07
2023-01-02T14:42:10.781Z,69.14
2023-01-02T14:44:43.932Z,69.39
2023-01-02T14:47:29.333Z,69.73
2023-01-02T14:49:59.760Z,69.69
2023-01-02T14:52:32.777Z,69.57
2023-01-02T14:55:08.434Z,69.64
2023-01-02T14:57:40.141Z,69.71
2023-01-02T15:00:22.723Z,69.87
2023-01-02T15:03:12.640Z,69.86
2023-01-02T15:05:47.716Z,69.98
2023-01-02T15:08:23.720Z,70.20
2023-01-02T15:11:19.529Z,70.41
2023-01-02T15:14:05.254Z,70.43
2023-01-02T15:16:23.994Z,70.39
2023-01-02T15:18:58.144Z,70.71
2023-01-02T15:21:29.080Z,70.82
2023-01-02T15:23:59.604Z,70.86
2023-01-02T15:26:36.051Z,70.91
2023-01-02T15:29:10.340Z,70.98
2023-01-02T15:31:39.972Z,71.12
2023-01-02T15:34:10.102Z,71.19
2023-01-02T15:36:41.228Z,71.23
2023-01-02T15:39:19.511Z,71.36
2023-01-02T15:41:50.460Z,71.52
2023-01-02T15:44:43.859Z,71.51
2023-01-02T15:47:13.884Z,70.93
2023-01-02T15:49:44.568Z,70.47
2023-01-02T15:52:31.116Z,70.55
2023-01-02T15:55:00.086Z,70.75
2023-01-02T15:57:33.850Z,71.13
2023-01-02T16:00:01.908Z,71.59
2023-01-02T16:02:44.345Z,71.94
2023-01-02T16:05:18.374Z,72.14
2023-01-02T16:07:55.334Z,72.34
2023-01-02T16:10:26.550Z,72.55
2023-01-02T16:13:06.951Z,72.64
2023-01-02T16:15:35.674Z,72.86
2023-01-02T16:18:04.019Z,72.87
2023-01-02T16:20:31.592Z,73.03
2023-01-02T16:23:04.116Z,73.02
2023-01-02T16:25:44.553Z,72.93
2023-01-02T16:28:35.631Z,72.83
2023-01-02T16:31:12.803Z,72.80
2023-01-02T16:33:45.343Z,72.60
2023-01-02T16:36:18.441Z,72.54
2023-01-02T16:38:53.324Z,72.56
2023-01-02T16:41:40.131Z,72.61
2023-01-02T16:44:15.153Z,72.56
2023-01-02T16:46:49.119Z,72.61
2023-01-02T16:49:21.556Z,72.52
2023-01-02T16:51:52.952Z,72.56
2023-01-02T16:54:20.920Z,72.76
2023-01-02T16:56:49.618Z,72.82
2023-01-02T16:59:17.231Z,73.01
2023-01-02T17:01:45.040Z,73.17
2023-01-02T17:04:14.174Z,73.28
2023-01-02T17:06:41.627Z,73.39
2023-01-02T17:09:09.617Z,73.51
2023-01-02T17:11:37.642Z,73.58
2023-01-02T17:14:05.179Z,73.72
2023-01-02T17:16:32.840Z,73.80
2023-01-02T17:19:00.318Z,74.00
2023-01-02T17:21:32.775Z,74.15
2023-01-02T17:23:57.566Z,74.24
2023-01-02T17:26:25.186Z,74.28
2023-01-02T17:28:53.053Z,74.35
2023-01-02T17:31:25.493Z,74.46
2023-01-02T17:33:50.086Z,74.54
2023-01-02T17:36:18.021Z,74.59
2023-01-02T17:38:45.812Z,74.72
2023-01-02T17:41:13.518Z,74.82
2023-01-02T17:44:02.432Z,75.07
2023-01-02T17:46:38.566Z,75.13
2023-01-02T17:48:41.823Z,74.97
2023-01-02T17:51:09.583Z,74.99
2023-01-02T17:53:37.949Z,75.07
2023-01-02T17:56:20.591Z,75.03
2023-01-02T17:58:35.871Z,75.00
2023-01-02T18:01:03.627Z,74.71
2023-01-02T18:03:31.522Z,74.46
2023-01-02T18:06:05.391Z,74.22
2023-01-02T18:08:33.602Z,74.24
2023-01-02T18:11:05.935Z,74.39
2023-01-02T18:13:38.040Z,74.55
2023-01-02T18:16:15.877Z,74.66
2023-01-02T18:18:45.383Z,74.50
2023-01-02T18:21:21.440Z,74.49
2023-01-02T18:24:02.203Z,74.43
2023-01-02T18:26:31.152Z,74.20
2023-01-02T18:29:09.358Z,74.11
2023-01-02T18:31:36.535Z,74.16
2023-01-02T18:34:46.996Z,74.25
2023-01-02T18:36:54.001Z,74.28
2023-01-02T18:39:34.376Z,74.32
2023-01-02T18:42:10.355Z,74.40
2023-01-02T18:44:40.785Z,74.53
2023-01-02T18:47:31.553Z,74.53
2023-01-02T18:50:21.789Z,74.53
2023-01-02T18:52:44.671Z,74.57
2023-01-02T18:55:17.138Z,74.73
2023-01-02T18:57:50.034Z,74.79
2023-01-02T19:00:27.744Z,74.75
2023-01-02T19:03:22.143Z,74.81
2023-01-02T19:05:49.959Z,74.91
2023-01-02T19:08:37.122Z,75.21
2023-01-02T19:11:17.162Z,75.41
2023-01-02T19:13:44.783Z,75.47
2023-01-02T19:16:19.433Z,75.54
2023-01-02T19:18:50.307Z,75.65
2023-01-02T19:21:31.080Z,75.67
2023-01-02T19:24:16.406Z,75.56
2023-01-02T19:26:48.644Z,75.66
2023-01-02T19:29:26.148Z,75.70
2023-01-02T19:32:25.831Z,75.23
2023-01-02T19:35:10.826Z,75.65
2023-01-02T19:37:45.683Z,75.61
2023-01-02T19:40:23.896Z,75.49
2023-01-02T19:42:54.747Z,75.11
2023-01-02T19:45:25.458Z,74.49
2023-01-02T19:47:53.840Z,74.55
2023-01-02T19:50:26.965Z,74.59
2023-01-02T19:52:54.981Z,74.73
2023-01-02T19:55:24.657Z,74.55
2023-01-02T19:57:57.581Z,74.73
2023-01-02T20:00:29.741Z,74.98
2023-01-02T20:02:59.549Z,75.16
2023-01-02T20:05:31.754Z,75.42
2023-01-02T20:08:02.122Z,75.60
2023-01-02T20:10:34.510Z,75.66
2023-01-02T20:13:02.895Z,75.71
2023-01-02T20:15:31.132Z,75.59
2023-01-02T20:18:02.454Z,75.45
2023-01-02T20:20:29.066Z,75.64
2023-01-02T20:22:56.756Z,75.82
2023-01-02T20:25:25.860Z,75.99
2023-01-02T20:27:55.737Z,75.98
2023-01-02T20:30:25.567Z,75.99
2023-01-02T20:32:53.984Z,75.93
2023-01-02T20:35:22.208Z,75.99
2023-01-02T20:37:49.843Z,76.09
2023-01-02T20:40:17.635Z,76.23
2023-01-02T20:42:45.206Z,76.31
2023-01-02T20:45:12.793Z,76.32
2023-01-02T20:47:40.628Z,76.39
2023-01-02T20:50:08.847Z,76.52
2023-01-02T20:52:36.794Z,76.71
2023-01-02T20:55:05.293Z,76.63
2023-01-02T20:57:33.112Z,76.60
2023-01-02T21:00:01.504Z,76.55
2023-01-02T21:02:29.526Z,76.31
2023-01-02T21:04:57.466Z,76.22
2023-01-02T21:07:25.941Z,76.34
2023-01-02T21:09:55.601Z,76.42
2023-01-02T21:12:29.015Z,76.67
2023-01-02T21:14:57.682Z,76.46
2023-01-02T21:17:25.763Z,76.28
2023-01-02T21:19:53.314Z,75.98
2023-01-02T21:22:20.981Z,75.93
2023-01-02T21:24:48.429Z,75.83
2023-01-02T21:27:16.210Z,75.99
2023-01-02T21:29:45.063Z,75.96
2023-01-02T21:32:12.723Z,76.23
2023-01-02T21:34:40.617Z,76.30
2023-01-02T21:37:08.101Z,76.27
2023-01-02T21:39:36.034Z,76.29
2023-01-02T21:42:15.278Z,76.30
2023-01-02T21:44:44.293Z,76.28
2023-01-02T21:47:12.444Z,76.27
2023-01-02T21:49:39.930Z,76.24
2023-01-02T21:52:07.526Z,76.35
2023-01-02T21:54:34.991Z,76.44
2023-01-02T21:57:02.488Z,76.55
2023-01-02T21:59:30.302Z,76.73
2023-01-02T22:01:59.637Z,76.80
2023-01-02T22:04:27.767Z,76.76
2023-01-02T22:09:24.764Z,76.91
2023-01-02T22:11:55.360Z,76.82
2023-01-02T22:14:31.960Z,76.86
2023-01-02T22:17:03.944Z,76.87
2023-01-02T22:19:32.517Z,77.04
2023-01-02T22:22:01.986Z,77.08
2023-01-02T22:24:29.731Z,76.97
2023-01-02T22:27:01.712Z,77.13
2023-01-02T22:30:00.334Z,76.99
2023-01-02T22:32:00.110Z,76.97
2023-01-02T22:34:28.243Z,76.86
2023-01-02T22:36:55.752Z,76.64
2023-01-02T22:39:28.362Z,76.48
2023-01-02T22:42:49.362Z,76.63
2023-01-02T22:44:47.889Z,76.49
2023-01-02T22:47:21.560Z,76.42
2023-01-02T22:49:49.375Z,76.37
2023-01-02T22:52:16.929Z,76.39
2023-01-02T22:54:44.859Z,76.33
2023-01-02T22:57:14.338Z,76.17
2023-01-02T22:59:42.156Z,75.96
2023-01-02T23:02:14.009Z,75.90
2023-01-02T23:04:42.095Z,75.67
2023-01-02T23:07:25.589Z,75.75
2023-01-02T23:09:49.223Z,75.52
2023-01-02T23:12:17.021Z,75.49
2023-01-02T23:14:44.702Z,75.31
2023-01-02T23:17:30.991Z,75.10
2023-01-02T23:19:58.832Z,75.01
2023-01-02T23:22:26.414Z,74.79
2023-01-02T23:24:54.218Z,74.64
2023-01-02T23:27:22.006Z,74.64
2023-01-02T23:29:49.358Z,74.56
2023-01-02T23:32:17.084Z,74.57
2023-01-02T23:34:44.667Z,74.58
2023-01-02T23:37:12.302Z,74.62
2023-01-02T23:39:41.641Z,74.50
2023-01-02T23:42:09.185Z,74.81
2023-01-02T23:44:38.693Z,74.98
2023-01-02T23:47:10.147Z,74.87
2023-01-02T23:49:36.370Z,74.82
2023-01-02T23:52:04.415Z,74.65
2023-01-02T23:54:32.482Z,74.73
2023-01-02T23:56:59.991Z,74.67
2023-01-02T23:59:27.839Z,74.79
